createdAt,value
2018-01-12T00:01:10.326Z,31.77
2018-01-12T00:03:39.850Z,35.30
2018-01-12T00:06:09.802Z,36.13
2018-01-12T00:08:39.279Z,33.57
2018-01-12T00:11:09.195Z,34.30
2018-01-12T00:13:38.947Z,37.83
2018-01-12T00:16:09.350Z,38.73
2018-01-12T00:18:38.875Z,35.73
2018-01-12T00:21:08.507Z,38.03
2018-01-12T00:23:38.121Z,40.30
2018-01-12T00:26:07.692Z,39.73
2018-01-12T00:28:38.105Z,41.23
2018-01-12T00:31:08.528Z,38.30
2018-01-12T00:33:38.203Z,39.60
2018-01-12T00:36:07.703Z,40.90
2018-01-12T00:38:37.406Z,41.27
2018-01-12T00:41:07.251Z,41.90
2018-01-12T00:43:36.837Z,38.93
2018-01-12T00:46:06.561Z,42.60
2018-01-12T00:48:36.488Z,44.03
2018-01-12T00:51:06.310Z,41.70
2018-01-12T00:53:36.002Z,41.37
2018-01-12T00:56:05.476Z,44.13
2018-01-12T00:58:35.056Z,44.63
2018-01-12T01:01:04.529Z,42.93
2018-01-12T01:03:34.269Z,40.57
2018-01-12T01:06:03.985Z,45.33
2018-01-12T01:08:33.662Z,44.93
2018-01-12T01:11:03.155Z,45.80
2018-01-12T01:13:32.827Z,44.23
2018-01-12T01:16:02.459Z,47.60
2018-01-12T01:18:32.048Z,46.20
2018-01-12T01:21:01.623Z,45.53
2018-01-12T01:23:31.533Z,44.97
2018-01-12T01:26:00.996Z,44.37
2018-01-12T01:28:30.511Z,45.93
2018-01-12T01:31:00.530Z,44.50
2018-01-12T01:33:30.252Z,43.60
2018-01-12T01:35:59.958Z,43.63
2018-01-12T01:38:29.527Z,46.23
2018-01-12T01:40:58.962Z,44.83
2018-01-12T01:43:28.403Z,45.80
2018-01-12T01:45:58.062Z,46.60
2018-01-12T01:48:36.413Z,45.30
2018-01-12T01:51:06.210Z,43.60
2018-01-12T01:53:35.702Z,43.93
2018-01-12T01:56:05.351Z,46.20
2018-01-12T01:58:34.799Z,40.47
2018-01-12T02:01:04.487Z,43.07
2018-01-12T02:03:33.951Z,41.77
2018-01-12T02:06:04.174Z,41.67
2018-01-12T02:08:33.755Z,44.23
2018-01-12T02:11:03.371Z,44.90
2018-01-12T02:13:32.806Z,39.63
2018-01-12T02:16:02.315Z,41.80
2018-01-12T02:18:32.101Z,41.30
2018-01-12T02:21:01.776Z,40.73
2018-01-12T02:23:31.477Z,40.83
2018-01-12T02:26:01.267Z,40.93
2018-01-12T02:28:30.906Z,42.50
2018-01-12T02:31:00.345Z,38.70
2018-01-12T02:33:29.952Z,39.63
2018-01-12T02:35:59.523Z,37.07
2018-01-12T02:38:29.227Z,39.67
2018-01-12T02:40:59.058Z,41.57
2018-01-12T02:43:28.502Z,36.73
2018-01-12T02:45:58.067Z,37.67
2018-01-12T02:48:27.479Z,39.03
2018-01-12T02:50:56.929Z,36.67
2018-01-12T02:53:26.456Z,39.00
2018-01-12T02:55:56.115Z,37.50
2018-01-12T02:58:25.603Z,36.43
2018-01-12T03:00:55.091Z,37.00
2018-01-12T03:03:24.776Z,38.90
2018-01-12T03:05:54.221Z,36.07
2018-01-12T03:08:23.678Z,34.07
2018-01-12T03:10:53.233Z,37.53
2018-01-12T03:13:23.002Z,34.37
2018-01-12T03:15:52.718Z,33.43
2018-01-12T03:18:22.199Z,36.33
2018-01-12T03:20:51.646Z,34.27
2018-01-12T03:23:21.239Z,32.67
2018-01-12T03:25:50.944Z,32.60
2018-01-12T03:28:20.422Z,35.00
2018-01-12T03:30:49.891Z,34.57
2018-01-12T03:33:19.617Z,34.13
2018-01-12T03:35:49.846Z,33.40
2018-01-12T03:38:19.301Z,36.43
2018-01-12T03:40:48.948Z,31.17
2018-01-12T03:43:19.203Z,32.67
2018-01-12T03:45:49.066Z,33.93
2018-01-12T03:48:18.515Z,34.80
2018-01-12T03:50:47.969Z,33.87
2018-01-12T03:53:17.742Z,34.83
2018-01-12T03:55:47.230Z,32.63
2018-01-12T03:58:16.864Z,34.77
2018-01-12T04:00:46.574Z,31.70
2018-01-12T04:03:16.031Z,32.70
2018-01-12T04:05:45.494Z,32.17
2018-01-12T04:08:15.158Z,32.73
2018-01-12T04:10:44.598Z,32.80
2018-01-12T04:13:14.155Z,34.40
2018-01-12T04:15:43.611Z,33.77
2018-01-12T04:18:13.154Z,36.00
2018-01-12T04:20:42.915Z,32.20
2018-01-12T04:23:12.586Z,34.80
2018-01-12T04:25:42.110Z,33.43
2018-01-12T04:28:11.524Z,34.53
2018-01-12T04:30:41.160Z,34.33
2018-01-12T04:33:10.614Z,33.33
2018-01-12T04:35:40.065Z,32.90
2018-01-12T04:38:09.495Z,33.80
2018-01-12T04:40:38.910Z,37.73
2018-01-12T04:43:09.251Z,32.27
2018-01-12T04:45:38.742Z,33.43
2018-01-12T04:48:08.947Z,32.10
2018-01-12T04:50:38.559Z,33.47
2018-01-12T04:53:09.176Z,32.47
2018-01-12T04:55:38.653Z,34.97
2018-01-12T04:58:08.705Z,33.67
2018-01-12T05:00:38.135Z,34.00
2018-01-12T05:03:07.588Z,35.23
2018-01-12T05:05:37.136Z,33.67
2018-01-12T05:08:06.580Z,34.77
2018-01-12T05:10:36.071Z,32.10
2018-01-12T05:13:05.543Z,32.70
2018-01-12T05:15:35.882Z,31.47
2018-01-12T05:18:05.425Z,33.83
2018-01-12T05:20:34.887Z,35.17
2018-01-12T05:23:04.518Z,32.60
2018-01-12T05:25:34.106Z,35.43
2018-01-12T05:28:03.613Z,34.20
2018-01-12T05:30:33.279Z,33.87
2018-01-12T05:33:02.878Z,33.17
2018-01-12T05:35:32.354Z,35.97
2018-01-12T05:38:02.547Z,34.60
2018-01-12T05:40:32.034Z,34.37
2018-01-12T05:43:01.703Z,35.13
2018-01-12T05:45:31.206Z,35.13
2018-01-12T05:48:00.812Z,37.07
2018-01-12T05:50:30.366Z,37.93
2018-01-12T05:53:00.661Z,34.03
2018-01-12T05:55:30.530Z,35.30
2018-01-12T05:58:00.266Z,36.30
2018-01-12T06:00:29.855Z,35.80
2018-01-12T06:04:11.169Z,33.73
2018-01-12T06:06:40.731Z,37.37
2018-01-12T06:09:10.368Z,37.10
2018-01-12T06:11:39.909Z,36.03
2018-01-12T06:14:09.575Z,47.90
2018-01-12T06:16:39.069Z,43.97
2018-01-12T06:19:08.895Z,61.27
2018-01-12T06:21:38.529Z,54.13
2018-01-12T06:24:07.982Z,50.90
2018-01-12T06:26:37.731Z,48.77
2018-01-12T06:29:07.186Z,50.70
2018-01-12T06:31:36.768Z,49.70
2018-01-12T06:34:06.455Z,49.50
2018-01-12T06:36:35.956Z,46.40
2018-01-12T06:39:05.715Z,45.10
2018-01-12T06:41:35.946Z,45.77
2018-01-12T06:44:05.733Z,47.50
2018-01-12T06:46:35.413Z,44.27
2018-01-12T06:49:04.909Z,44.53
2018-01-12T06:51:34.535Z,44.67
2018-01-12T06:54:04.058Z,41.47
2018-01-12T06:56:33.495Z,42.67
2018-01-12T06:59:03.002Z,41.13
2018-01-12T07:01:32.535Z,42.03
2018-01-12T07:04:02.060Z,41.87
2018-01-12T07:06:32.386Z,39.93
2018-01-12T07:09:01.933Z,41.73
2018-01-12T07:11:31.607Z,43.57
2018-01-12T07:14:01.320Z,40.30
2018-01-12T07:16:31.234Z,42.17
2018-01-12T07:19:01.552Z,40.33
2018-01-12T07:21:43.701Z,40.37
2018-01-12T07:24:13.207Z,44.50
2018-01-12T07:26:42.698Z,41.30
2018-01-12T07:29:12.192Z,39.40
2018-01-12T07:31:42.012Z,39.13
2018-01-12T07:34:11.610Z,37.60
2018-01-12T07:36:41.838Z,40.97
2018-01-12T07:39:11.370Z,39.10
2018-01-12T07:41:41.048Z,41.80
2018-01-12T07:44:10.578Z,37.07
2018-01-12T07:46:40.023Z,37.97
2018-01-12T07:49:09.524Z,37.70
2018-01-12T07:51:39.149Z,35.23
2018-01-12T07:54:08.698Z,35.30
2018-01-12T07:56:38.258Z,36.33
2018-01-12T07:59:08.497Z,35.97
2018-01-12T08:01:42.954Z,35.27
2018-01-12T08:04:12.827Z,33.93
2018-01-12T08:06:43.078Z,32.90
2018-01-12T08:09:12.712Z,34.23
2018-01-12T08:11:42.330Z,32.83
2018-01-12T08:14:11.826Z,32.93
2018-01-12T08:16:41.390Z,32.57
2018-01-12T08:19:11.499Z,30.60
2018-01-12T08:21:41.458Z,31.30
2018-01-12T08:24:11.002Z,34.10
2018-01-12T08:26:42.221Z,33.57
2018-01-12T08:29:11.768Z,30.77
2018-01-12T08:31:42.099Z,30.93
2018-01-12T08:34:12.476Z,30.30
2018-01-12T08:36:42.010Z,27.60
2018-01-12T08:39:12.544Z,29.53
2018-01-12T08:41:42.030Z,28.40
2018-01-12T08:44:11.962Z,29.80
2018-01-12T08:46:41.470Z,27.20
2018-01-12T08:49:11.228Z,28.27
2018-01-12T08:51:40.721Z,29.40
2018-01-12T08:54:10.268Z,28.23
2018-01-12T08:56:39.740Z,29.73
2018-01-12T08:59:09.417Z,28.07
2018-01-12T09:01:39.052Z,28.90
2018-01-12T09:04:08.848Z,29.50
2018-01-12T09:06:38.716Z,28.23
2018-01-12T09:09:08.307Z,29.30
2018-01-12T09:11:38.852Z,28.00
2018-01-12T09:14:17.612Z,26.73
2018-01-12T09:16:51.808Z,29.03
2018-01-12T09:19:32.609Z,28.00
2018-01-12T09:22:09.572Z,27.70
2018-01-12T09:25:15.073Z,25.80
2018-01-12T09:27:46.302Z,26.77
2018-01-12T09:30:16.041Z,23.90
2018-01-12T09:32:45.777Z,25.40
2018-01-12T09:35:16.084Z,25.50
2018-01-12T09:37:46.080Z,25.10
2018-01-12T09:40:20.361Z,23.60
2018-01-12T09:42:50.172Z,22.63
2018-01-12T09:45:20.052Z,23.63
2018-01-12T09:47:58.375Z,22.10
2018-01-12T09:50:29.396Z,19.37
2018-01-12T09:52:59.309Z,22.43
2018-01-12T09:55:29.090Z,19.67
2018-01-12T09:57:58.862Z,22.27
2018-01-12T10:00:28.503Z,19.57
2018-01-12T10:02:58.363Z,18.63
2018-01-12T10:05:27.866Z,19.77
2018-01-12T10:08:05.370Z,18.53
2018-01-12T10:10:35.993Z,18.13
2018-01-12T10:13:06.040Z,17.77
2018-01-12T10:15:36.014Z,17.47
2018-01-12T10:18:12.973Z,17.30
2018-01-12T10:20:42.546Z,16.33
2018-01-12T10:23:12.458Z,15.90
2018-01-12T10:25:42.178Z,14.93
2018-01-12T10:28:11.722Z,15.77
2018-01-12T10:30:56.913Z,15.10
2018-01-12T10:33:31.983Z,14.03
2018-01-12T10:36:03.272Z,15.57
2018-01-12T10:38:35.764Z,13.90
2018-01-12T10:41:14.235Z,14.10
2018-01-12T10:43:43.805Z,15.83
2018-01-12T10:46:22.571Z,14.37
2018-01-12T10:48:57.145Z,13.90
2018-01-12T10:51:35.121Z,13.57
2018-01-12T10:54:04.753Z,16.67
2018-01-12T10:56:44.165Z,14.20
2018-01-12T10:59:13.650Z,13.67
2018-01-12T11:01:43.082Z,14.17
2018-01-12T11:04:12.558Z,14.10
2018-01-12T11:06:42.336Z,16.80
2018-01-12T11:09:11.946Z,14.13
2018-01-12T11:11:41.478Z,15.73
2018-01-12T11:14:11.235Z,14.90
2018-01-12T11:16:40.782Z,15.33
2018-01-12T11:19:10.274Z,15.47
2018-01-12T11:21:40.510Z,12.80
2018-01-12T11:24:09.970Z,14.57
2018-01-12T11:26:40.614Z,14.50
2018-01-12T11:29:10.234Z,14.53
2018-01-12T11:31:40.083Z,13.63
2018-01-12T11:34:09.542Z,15.00
2018-01-12T11:36:39.312Z,13.97
2018-01-12T11:39:08.875Z,14.00
2018-01-12T11:41:38.394Z,14.33
2018-01-12T11:44:08.138Z,14.47
2018-01-12T11:46:38.533Z,13.80
2018-01-12T11:49:08.342Z,12.30
2018-01-12T11:51:37.917Z,14.20
2018-01-12T11:54:07.375Z,13.67
2018-01-12T11:56:36.988Z,12.87
2018-01-12T11:59:06.975Z,13.70
2018-01-12T12:01:36.486Z,13.70
2018-01-12T12:04:06.591Z,13.10
2018-01-12T12:06:36.102Z,13.00
2018-01-12T12:09:05.990Z,12.10
2018-01-12T12:11:35.475Z,13.47
2018-01-12T12:14:05.041Z,12.77
2018-01-12T12:16:34.716Z,13.00
2018-01-12T12:19:04.318Z,12.10
2018-01-12T12:21:34.206Z,12.73
2018-01-12T12:24:03.882Z,13.90
2018-01-12T12:26:33.410Z,12.37
2018-01-12T12:29:03.685Z,13.50
2018-01-12T12:31:33.332Z,13.00
2018-01-12T12:34:02.954Z,12.67
2018-01-12T12:36:32.637Z,12.73
2018-01-12T12:39:02.109Z,13.27
2018-01-12T12:41:32.098Z,12.77
2018-01-12T12:44:01.806Z,15.33
2018-01-12T12:46:31.286Z,13.00
2018-01-12T12:49:00.831Z,13.00
2018-01-12T12:51:30.302Z,12.77
2018-01-12T12:54:00.108Z,13.87
2018-01-12T12:56:31.011Z,13.40
2018-01-12T12:59:00.800Z,14.87
2018-01-12T13:01:30.549Z,15.20
2018-01-12T13:04:00.154Z,15.37
2018-01-12T13:06:30.628Z,15.37
2018-01-12T13:09:02.648Z,15.73
2018-01-12T13:11:32.382Z,14.60
2018-01-12T13:14:01.961Z,14.90
2018-01-12T13:16:31.567Z,14.27
2018-01-12T13:19:01.306Z,14.77
2018-01-12T13:21:30.847Z,16.60
2018-01-12T13:24:00.599Z,14.60
2018-01-12T13:26:30.295Z,15.30
2018-01-12T13:29:00.054Z,14.97
2018-01-12T13:31:29.627Z,13.80
2018-01-12T13:33:59.361Z,14.87
2018-01-12T13:36:29.237Z,15.33
2018-01-12T13:39:00.050Z,15.57
2018-01-12T13:41:32.561Z,16.30
2018-01-12T13:44:02.413Z,16.37
2018-01-12T13:46:32.390Z,15.47
2018-01-12T13:49:01.895Z,15.40
2018-01-12T13:51:31.546Z,16.50
2018-01-12T13:54:01.166Z,15.40
2018-01-12T13:56:30.666Z,16.20
2018-01-12T13:59:00.964Z,16.33
2018-01-12T14:01:30.545Z,15.97
2018-01-12T14:04:00.276Z,14.93
2018-01-12T14:06:30.088Z,17.50
2018-01-12T14:08:59.710Z,16.00
2018-01-12T14:11:29.327Z,16.33
2018-01-12T14:13:59.047Z,18.70
2018-01-12T14:16:28.579Z,15.17
2018-01-12T14:18:58.264Z,17.83
2018-01-12T14:21:27.974Z,15.63
2018-01-12T14:23:57.872Z,17.40
2018-01-12T14:26:27.844Z,19.03
2018-01-12T14:28:57.359Z,16.30
2018-01-12T14:31:27.173Z,16.07
2018-01-12T14:33:56.899Z,16.43
2018-01-12T14:36:26.510Z,17.20
2018-01-12T14:38:56.216Z,16.30
2018-01-12T14:41:26.084Z,17.90
2018-01-12T14:43:55.578Z,17.80
2018-01-12T14:46:25.559Z,16.20
2018-01-12T14:48:55.412Z,16.17
2018-01-12T14:51:25.298Z,15.27
2018-01-12T14:53:54.892Z,17.17
2018-01-12T14:56:24.697Z,17.57
2018-01-12T14:58:54.436Z,16.33
2018-01-12T15:01:23.996Z,14.90
2018-01-12T15:03:53.814Z,15.90
2018-01-12T15:06:23.886Z,18.70
2018-01-12T15:08:53.661Z,16.57
2018-01-12T15:11:24.100Z,15.47
2018-01-12T15:13:53.837Z,14.37
2018-01-12T15:16:23.813Z,16.10
2018-01-12T15:18:53.348Z,16.00
2018-01-12T15:21:22.940Z,15.43
2018-01-12T15:23:52.791Z,16.37
2018-01-12T15:26:22.521Z,17.87
2018-01-12T15:28:53.553Z,17.77
2018-01-12T15:31:23.238Z,14.17
2018-01-12T15:33:53.002Z,16.77
2018-01-12T15:36:22.560Z,15.13
2018-01-12T15:38:52.506Z,16.80
2018-01-12T15:41:22.407Z,16.63
2018-01-12T15:43:51.949Z,14.97
2018-01-12T15:46:21.884Z,16.20
2018-01-12T15:48:51.785Z,16.93
2018-01-12T15:51:21.658Z,15.67
2018-01-12T15:53:51.649Z,16.27
2018-01-12T15:56:21.864Z,14.30
2018-01-12T15:58:51.561Z,14.93
2018-01-12T16:01:21.258Z,15.00
2018-01-12T16:03:51.984Z,14.87
2018-01-12T16:06:22.651Z,14.80
2018-01-12T16:08:52.245Z,15.20
2018-01-12T16:11:22.389Z,15.50
2018-01-12T16:13:52.115Z,15.70
2018-01-12T16:16:21.854Z,14.50
2018-01-12T16:18:51.840Z,12.83
2018-01-12T16:21:21.303Z,13.63
2018-01-12T16:23:50.849Z,13.50
2018-01-12T16:26:20.314Z,13.90
2018-01-12T16:28:50.232Z,14.83
2018-01-12T16:31:19.786Z,14.43
2018-01-12T16:33:49.548Z,14.50
2018-01-12T16:36:19.074Z,14.70
2018-01-12T16:38:48.815Z,14.77
2018-01-12T16:41:18.420Z,14.20
2018-01-12T16:43:48.208Z,13.93
2018-01-12T16:46:18.042Z,15.23
2018-01-12T16:48:47.812Z,14.73
2018-01-12T16:51:17.514Z,15.53
2018-01-12T16:53:47.040Z,14.33
2018-01-12T16:56:17.077Z,15.20
2018-01-12T16:58:46.824Z,15.17
2018-01-12T17:01:16.586Z,15.10
2018-01-12T17:03:46.472Z,14.10
2018-01-12T17:06:16.221Z,16.60
2018-01-12T17:08:46.266Z,17.00
2018-01-12T17:11:15.877Z,15.10
2018-01-12T17:13:45.421Z,14.50
2018-01-12T17:16:15.124Z,14.67
2018-01-12T17:18:44.945Z,14.70
2018-01-12T17:21:14.735Z,15.67
2018-01-12T17:23:44.369Z,15.80
2018-01-12T17:26:13.963Z,13.70
2018-01-12T17:28:43.728Z,13.73
2018-01-12T17:31:13.524Z,12.57
2018-01-12T17:33:42.979Z,14.03
2018-01-12T17:36:13.534Z,12.10
2018-01-12T17:38:43.112Z,12.63
2018-01-12T17:41:13.009Z,12.80
2018-01-12T17:43:42.769Z,12.50
2018-01-12T17:46:12.578Z,12.33
2018-01-12T17:48:42.133Z,11.70
2018-01-12T17:51:11.808Z,11.27
2018-01-12T17:53:41.704Z,10.43
2018-01-12T17:56:11.396Z,11.53
2018-01-12T17:58:41.156Z,9.63
2018-01-12T18:01:10.760Z,11.23
2018-01-12T18:03:40.392Z,10.50
2018-01-12T18:06:11.688Z,9.37
2018-01-12T18:08:41.405Z,9.40
2018-01-12T18:11:11.095Z,9.70
2018-01-12T18:13:40.693Z,10.13
2018-01-12T18:16:10.556Z,10.53
2018-01-12T18:18:40.252Z,10.30
2018-01-12T18:21:09.781Z,11.00
2018-01-12T18:23:39.342Z,10.70
2018-01-12T18:26:09.000Z,10.33
2018-01-12T18:28:38.585Z,10.90
2018-01-12T18:31:08.617Z,12.60
2018-01-12T18:33:38.247Z,10.73
2018-01-12T18:36:07.802Z,13.20
2018-01-12T18:38:37.724Z,12.30
2018-01-12T18:41:07.554Z,12.17
2018-01-12T18:43:37.387Z,12.80
2018-01-12T18:46:07.206Z,11.47
2018-01-12T18:48:37.770Z,11.37
2018-01-12T18:51:07.560Z,11.93
2018-01-12T18:53:37.157Z,12.50
2018-01-12T18:56:08.153Z,13.30
2018-01-12T18:58:37.819Z,12.80
2018-01-12T19:01:07.757Z,12.90
2018-01-12T19:03:37.699Z,12.80
2018-01-12T19:06:07.598Z,13.30
2018-01-12T19:08:37.647Z,14.80
2018-01-12T19:11:07.319Z,12.97
2018-01-12T19:13:36.902Z,14.03
2018-01-12T19:16:06.455Z,14.30
2018-01-12T19:18:37.215Z,13.93
2018-01-12T19:21:06.865Z,15.00
2018-01-12T19:23:36.640Z,13.23
2018-01-12T19:26:06.557Z,13.60
2018-01-12T19:28:36.123Z,14.10
2018-01-12T19:31:06.041Z,14.03
2018-01-12T19:33:35.814Z,14.87
2018-01-12T19:36:05.566Z,14.97
2018-01-12T19:38:35.774Z,16.10
2018-01-12T19:41:05.776Z,14.50
2018-01-12T19:43:35.541Z,14.83
2018-01-12T19:46:05.324Z,15.30
2018-01-12T19:48:35.127Z,16.17
2018-01-12T19:51:04.903Z,16.20
2018-01-12T19:53:34.731Z,16.57
2018-01-12T19:56:04.658Z,17.50
2018-01-12T19:58:34.608Z,16.80
2018-01-12T20:01:04.245Z,16.57
2018-01-12T20:03:33.863Z,16.20
2018-01-12T20:06:03.572Z,17.53
2018-01-12T20:08:33.390Z,15.70
2018-01-12T20:11:03.608Z,16.77
2018-01-12T20:13:33.563Z,17.00
2018-01-12T20:16:05.022Z,17.47
2018-01-12T20:18:35.025Z,17.53
2018-01-12T20:21:04.930Z,17.53
2018-01-12T20:23:35.253Z,18.20
2018-01-12T20:26:05.104Z,18.37
2018-01-12T20:28:35.814Z,20.13
2018-01-12T20:31:05.932Z,18.70
2018-01-12T20:33:35.948Z,16.10
2018-01-12T20:36:05.872Z,18.30
2018-01-12T20:38:35.499Z,18.50
2018-01-12T20:41:05.920Z,17.53
2018-01-12T20:43:36.643Z,18.67
2018-01-12T20:46:06.325Z,18.27
2018-01-12T20:48:37.384Z,18.37
2018-01-12T20:51:07.236Z,20.03
2018-01-12T20:53:36.872Z,19.57
2018-01-12T20:56:07.425Z,18.80
2018-01-12T20:58:37.275Z,16.80
2018-01-12T21:01:07.307Z,18.63
2018-01-12T21:03:37.485Z,17.83
2018-01-12T21:06:07.384Z,18.67
2018-01-12T21:08:37.177Z,19.50
2018-01-12T21:11:06.875Z,16.50
2018-01-12T21:13:36.437Z,18.97
2018-01-12T21:16:06.167Z,16.67
2018-01-12T21:18:35.829Z,19.10
2018-01-12T21:21:05.824Z,17.50
2018-01-12T21:23:35.536Z,17.93
2018-01-12T21:26:05.123Z,16.93
2018-01-12T21:28:34.930Z,16.70
2018-01-12T21:31:04.827Z,18.40
2018-01-12T21:33:34.706Z,16.03
2018-01-12T21:36:04.614Z,26.20
2018-01-12T21:38:34.601Z,30.10
2018-01-12T21:41:04.167Z,26.70
2018-01-12T21:43:33.961Z,26.77
2018-01-12T21:46:04.690Z,22.97
2018-01-12T21:48:34.654Z,24.73
2018-01-12T21:51:04.517Z,21.87
2018-01-12T21:53:34.504Z,21.57
2018-01-12T21:56:04.313Z,22.97
2018-01-12T21:58:34.228Z,21.97
2018-01-12T22:01:03.887Z,21.67
2018-01-12T22:03:34.090Z,22.00
2018-01-12T22:06:04.028Z,21.30
2018-01-12T22:08:34.029Z,18.63
2018-01-12T22:11:04.359Z,21.80
2018-01-12T22:13:34.210Z,18.93
2018-01-12T22:16:04.492Z,20.43
2018-01-12T22:18:34.621Z,19.27
2018-01-12T22:21:05.454Z,19.40
2018-01-12T22:23:35.461Z,17.23
2018-01-12T22:26:05.613Z,18.70
2018-01-12T22:28:35.472Z,18.47
2018-01-12T22:31:05.322Z,19.60
2018-01-12T22:33:35.343Z,19.33
2018-01-12T22:36:05.394Z,17.77
2018-01-12T22:38:35.456Z,17.93
2018-01-12T22:41:05.203Z,18.03
2018-01-12T22:43:35.619Z,18.00
2018-01-12T22:46:05.342Z,18.73
2018-01-12T22:48:35.093Z,19.33
2018-01-12T22:51:04.885Z,18.27
2018-01-12T22:53:34.540Z,17.20
2018-01-12T22:56:04.663Z,18.77
2018-01-12T22:58:34.591Z,18.10
2018-01-12T23:01:04.478Z,19.60
2018-01-12T23:03:34.517Z,19.07
2018-01-12T23:06:04.302Z,20.07
2018-01-12T23:08:34.916Z,18.47
2018-01-12T23:11:04.776Z,21.47
2018-01-12T23:13:34.504Z,20.57
2018-01-12T23:16:05.080Z,20.20
2018-01-12T23:18:34.732Z,19.23
2018-01-12T23:21:05.273Z,19.20
2018-01-12T23:23:39.389Z,20.23
2018-01-12T23:26:09.888Z,20.10
2018-01-12T23:28:39.911Z,19.80
2018-01-12T23:31:09.658Z,20.20
2018-01-12T23:33:39.238Z,19.70
2018-01-12T23:36:08.719Z,22.07
2018-01-12T23:38:38.496Z,22.70
2018-01-12T23:41:08.388Z,21.00
2018-01-12T23:43:38.020Z,23.90
2018-01-12T23:46:07.859Z,21.63
2018-01-12T23:48:37.493Z,21.20
2018-01-12T23:51:07.122Z,21.63
2018-01-12T23:53:36.836Z,22.57
2018-01-12T23:56:06.689Z,21.80
2018-01-12T23:58:36.502Z,22.80
